Time;durP1;ratioP1;P1;durP2;ratioP2;P2;SDS_P1;SDS_P2;PMS_P1;PMS_P2;Temp;Humidity;BMP_temperature;BMP_pressure;BME280_temperature;BME280_humidity;BME280_pressure;Samples;Min_cycle;Max_cycle;Signal;HPM_P1;HPM_P2
2023/07/12 00:01:46;;;;;;;3.75;3.20;;;18.90;99.90;;;;;;4898988;29;20123;-88
2023/07/12 00:04:12;;;;;;;3.40;3.10;;;18.80;99.90;;;;;;4898461;29;20034;-88
2023/07/12 00:06:39;;;;;;;4.47;3.90;;;18.80;99.90;;;;;;4898426;29;20457;-88
2023/07/12 00:09:09;;;;;;;4.75;3.83;;;18.90;99.90;;;;;;4898504;29;20119;-88
2023/07/12 00:11:35;;;;;;;4.00;3.63;;;18.90;99.90;;;;;;4883008;29;20128;-88
2023/07/12 00:14:01;;;;;;;5.63;4.13;;;18.90;99.90;;;;;;4899724;29;20119;-88
2023/07/12 00:16:28;;;;;;;4.70;4.15;;;18.90;99.90;;;;;;4879694;29;20068;-88
2023/07/12 00:18:56;;;;;;;4.47;3.40;;;18.90;99.90;;;;;;4891379;29;20123;-88
2023/07/12 00:21:25;;;;;;;4.95;4.10;;;18.90;99.90;;;;;;4889625;29;20131;-88
2023/07/12 00:23:53;;;;;;;5.13;4.00;;;18.90;99.90;;;;;;4898183;29;20068;-88
2023/07/12 00:26:33;;;;;;;4.15;3.45;;;18.90;99.90;;;;;;4903610;29;20040;-88
2023/07/12 00:29:07;;;;;;;4.10;3.70;;;18.90;99.90;;;;;;4927046;29;20044;-88
2023/07/12 00:31:34;;;;;;;4.13;3.72;;;18.90;99.90;;;;;;4882415;29;20084;-88
2023/07/12 00:36:32;;;;;;;4.75;3.80;;;18.90;99.90;;;;;;4900866;29;20049;-87
2023/07/12 00:39:00;;;;;;;5.70;4.00;;;19.00;99.90;;;;;;4892020;29;20408;-87
2023/07/12 00:42:05;;;;;;;5.03;3.65;;;18.90;99.90;;;;;;4893489;29;20039;-87
2023/07/12 00:44:44;;;;;;;5.55;3.50;;;19.00;99.90;;;;;;4894318;29;20043;-87
2023/07/12 00:47:12;;;;;;;3.50;3.20;;;19.00;99.90;;;;;;4898698;29;20064;-87
2023/07/12 00:49:37;;;;;;;4.03;3.72;;;19.00;99.90;;;;;;4896555;29;20056;-87
2023/07/12 00:52:16;;;;;;;3.72;3.10;;;19.00;99.90;;;;;;4899401;29;20123;-87
2023/07/12 00:54:55;;;;;;;3.50;3.20;;;19.00;99.90;;;;;;4889786;29;20558;-87
2023/07/12 00:57:23;;;;;;;3.55;3.25;;;19.00;99.90;;;;;;4898789;29;20070;-87
2023/07/12 00:59:51;;;;;;;3.38;3.03;;;19.00;99.90;;;;;;4902468;29;20529;-87
2023/07/12 01:02:17;;;;;;;3.65;3.30;;;19.00;99.90;;;;;;4887880;29;20040;-86
2023/07/12 01:04:48;;;;;;;4.07;3.33;;;19.00;99.90;;;;;;4898748;29;20044;-87
2023/07/12 01:07:14;;;;;;;3.95;3.38;;;19.00;99.90;;;;;;4898654;29;20064;-87
2023/07/12 01:09:40;;;;;;;4.43;3.45;;;19.00;99.90;;;;;;4883222;29;20044;-87
2023/07/12 01:12:06;;;;;;;4.32;3.30;;;19.00;99.90;;;;;;4881479;29;20043;-87
2023/07/12 01:14:32;;;;;;;4.15;3.40;;;19.00;99.90;;;;;;4907492;29;20039;-87
2023/07/12 01:17:01;;;;;;;4.70;3.35;;;18.90;99.90;;;;;;4887309;29;20039;-88
2023/07/12 01:19:27;;;;;;;3.80;3.50;;;18.90;99.90;;;;;;4906034;29;20044;-87
2023/07/12 01:21:54;;;;;;;3.28;2.60;;;18.90;99.90;;;;;;4889560;29;20399;-87
2023/07/12 01:24:22;;;;;;;4.95;3.17;;;18.90;99.90;;;;;;4904482;29;20051;-87
2023/07/12 01:26:51;;;;;;;3.67;3.13;;;18.90;99.90;;;;;;4891617;29;20040;-87
2023/07/12 01:29:17;;;;;;;3.50;3.20;;;18.90;99.90;;;;;;4903434;29;20032;-87
2023/07/12 01:31:44;;;;;;;4.78;4.03;;;18.90;99.90;;;;;;4900644;29;20093;-87
2023/07/12 01:34:11;;;;;;;3.92;3.28;;;18.80;99.90;;;;;;4889364;29;20075;-87
2023/07/12 01:36:37;;;;;;;4.57;3.47;;;18.80;99.90;;;;;;4902355;29;20032;-87
2023/07/12 01:39:05;;;;;;;5.50;4.20;;;18.80;99.90;;;;;;4905146;29;20123;-87
2023/07/12 01:41:31;;;;;;;4.43;3.78;;;18.80;99.90;;;;;;4896288;29;20399;-87
2023/07/12 01:43:57;;;;;;;5.93;4.07;;;18.70;99.90;;;;;;4916729;29;20168;-88
2023/07/12 01:46:24;;;;;;;4.20;3.80;;;18.70;99.90;;;;;;4911897;29;20048;-87
2023/07/12 01:48:50;;;;;;;4.53;4.13;;;18.60;99.90;;;;;;4892213;29;20071;-87
2023/07/12 01:51:17;;;;;;;4.63;3.70;;;18.60;99.90;;;;;;4901482;29;20079;-87
2023/07/12 01:53:43;;;;;;;4.72;4.32;;;18.60;99.90;;;;;;4883418;29;20441;-87
2023/07/12 01:56:10;;;;;;;5.45;4.20;;;18.50;99.90;;;;;;4899557;29;20040;-87
2023/07/12 01:58:35;;;;;;;4.65;4.07;;;18.50;99.90;;;;;;4901875;29;20268;-87
2023/07/12 02:01:01;;;;;;;6.78;4.13;;;18.50;99.90;;;;;;4885348;29;20484;-87
2023/07/12 02:03:27;;;;;;;5.00;4.13;;;18.50;99.90;;;;;;4889331;29;20035;-88
2023/07/12 02:05:53;;;;;;;4.70;4.00;;;18.50;99.90;;;;;;4886180;29;20096;-88
2023/07/12 02:08:20;;;;;;;5.13;4.05;;;18.50;99.90;;;;;;4897735;29;20036;-87
2023/07/12 02:10:46;;;;;;;4.63;3.90;;;18.50;99.90;;;;;;4901463;29;20827;-86
2023/07/12 02:13:12;;;;;;;6.93;4.30;;;18.50;99.90;;;;;;4882775;29;20044;-87
2023/07/12 02:15:38;;;;;;;6.07;4.45;;;18.40;99.90;;;;;;4867889;29;20045;-87
2023/07/12 02:18:03;;;;;;;4.82;4.43;;;18.40;99.90;;;;;;4885332;29;20032;-87
2023/07/12 02:20:29;;;;;;;4.72;4.32;;;18.40;99.90;;;;;;4908118;29;20036;-88
2023/07/12 02:22:55;;;;;;;5.82;4.63;;;18.40;99.90;;;;;;4908521;29;20036;-87
2023/07/12 02:25:21;;;;;;;4.72;4.30;;;18.40;99.90;;;;;;4901020;29;20044;-87
2023/07/12 02:27:48;;;;;;;5.47;4.53;;;18.30;99.90;;;;;;4900881;29;20048;-87
2023/07/12 02:30:17;;;;;;;7.30;4.93;;;18.30;99.90;;;;;;4902087;29;20044;-87
2023/07/12 02:32:43;;;;;;;5.05;4.32;;;18.10;99.90;;;;;;4885331;29;20123;-87
2023/07/12 02:35:09;;;;;;;5.57;5.05;;;18.20;99.90;;;;;;4902465;29;20047;-88
2023/07/12 02:37:35;;;;;;;8.32;4.57;;;18.20;99.90;;;;;;4910000;29;20039;-86
2023/07/12 02:40:02;;;;;;;6.65;4.88;;;18.20;99.90;;;;;;4886535;29;20039;-87
2023/07/12 02:42:28;;;;;;;6.80;4.55;;;18.20;99.90;;;;;;4903300;29;20452;-86
2023/07/12 02:44:54;;;;;;;7.25;5.05;;;18.20;99.90;;;;;;4900120;29;20039;-87
2023/07/12 02:47:19;;;;;;;6.07;5.13;;;18.20;99.90;;;;;;4884803;29;20036;-87
2023/07/12 02:49:45;;;;;;;5.78;5.22;;;18.20;99.90;;;;;;4905772;29;20108;-87
2023/07/12 02:52:10;;;;;;;5.65;5.15;;;18.20;99.90;;;;;;4909358;29;20047;-87
2023/07/12 02:54:36;;;;;;;5.80;5.30;;;18.10;99.90;;;;;;4901781;29;20036;-86
2023/07/12 02:57:03;;;;;;;8.38;5.28;;;18.10;99.90;;;;;;4900399;29;20040;-87
2023/07/12 02:59:29;;;;;;;8.23;5.25;;;18.10;99.90;;;;;;4890354;29;20049;-87
2023/07/12 03:01:54;;;;;;;6.50;4.75;;;18.10;99.90;;;;;;4873556;29;20032;-87
2023/07/12 03:04:22;;;;;;;4.80;4.30;;;18.10;99.90;;;;;;4886770;29;20143;-86
2023/07/12 03:06:48;;;;;;;6.10;4.88;;;18.10;99.90;;;;;;4901014;29;20052;-86
2023/07/12 03:09:14;;;;;;;7.95;4.70;;;18.10;99.90;;;;;;4901170;29;20032;-87
2023/07/12 03:11:40;;;;;;;4.82;4.35;;;18.10;99.90;;;;;;4886007;29;20079;-88
2023/07/12 03:14:06;;;;;;;6.78;4.38;;;18.10;99.90;;;;;;4892484;29;20067;-86
2023/07/12 03:16:32;;;;;;;5.93;4.55;;;18.00;99.90;;;;;;4907322;29;20505;-87
2023/07/12 03:19:00;;;;;;;6.88;4.35;;;18.00;99.90;;;;;;4900678;29;20032;-86
2023/07/12 03:21:25;;;;;;;6.22;4.57;;;18.00;99.90;;;;;;4889954;29;20427;-87
2023/07/12 03:23:51;;;;;;;7.90;5.65;;;18.10;99.90;;;;;;4884742;29;20119;-86
2023/07/12 03:26:17;;;;;;;8.13;4.82;;;17.90;99.90;;;;;;4892781;29;20042;-87
2023/07/12 03:28:43;;;;;;;5.35;4.85;;;17.80;99.90;;;;;;4905963;29;20119;-86
2023/07/12 03:31:15;;;;;;;7.43;4.80;;;17.70;99.90;;;;;;4896125;29;20407;-86
2023/07/12 03:33:42;;;;;;;6.63;4.72;;;17.70;99.90;;;;;;4903364;29;20090;-86
2023/07/12 03:36:08;;;;;;;10.30;5.32;;;17.70;99.90;;;;;;4908592;29;20040;-87
2023/07/12 03:38:34;;;;;;;9.90;4.97;;;17.60;99.90;;;;;;4886518;29;20041;-87
2023/07/12 03:41:05;;;;;;;9.70;5.25;;;17.60;99.90;;;;;;4900895;29;20403;-86
2023/07/12 03:43:32;;;;;;;8.98;5.28;;;17.60;99.90;;;;;;4897916;29;20664;-87
2023/07/12 03:45:58;;;;;;;8.23;4.43;;;17.60;99.90;;;;;;4909411;29;20044;-86
2023/07/12 03:48:24;;;;;;;7.80;5.10;;;17.60;99.90;;;;;;4904006;29;20040;-86
2023/07/12 03:50:51;;;;;;;8.90;5.13;;;17.60;99.90;;;;;;4905948;29;20547;-87
2023/07/12 03:53:18;;;;;;;8.68;4.90;;;17.60;99.90;;;;;;4900886;29;20047;-86
2023/07/12 03:55:45;;;;;;;7.78;4.97;;;17.70;99.90;;;;;;4900143;29;20040;-86
2023/07/12 03:58:16;;;;;;;8.85;5.55;;;17.60;99.90;;;;;;4902674;29;20391;-85
2023/07/12 04:00:43;;;;;;;7.57;5.03;;;17.60;99.90;;;;;;4906096;29;20054;-86
2023/07/12 04:03:11;;;;;;;9.57;4.90;;;17.60;99.90;;;;;;4910562;29;20510;-87
2023/07/12 04:05:37;;;;;;;6.57;4.93;;;17.60;99.90;;;;;;4905208;29;20411;-87
2023/07/12 04:08:03;;;;;;;8.40;4.43;;;17.60;99.90;;;;;;4882956;29;20078;-87
2023/07/12 04:10:29;;;;;;;9.40;5.03;;;17.60;99.90;;;;;;4898465;29;20075;-87
2023/07/12 04:12:54;;;;;;;8.20;5.28;;;17.50;99.90;;;;;;4898251;29;20460;-87
2023/07/12 04:15:20;;;;;;;6.47;5.10;;;17.50;99.90;;;;;;4916568;29;20036;-87
2023/07/12 04:17:45;;;;;;;10.80;5.10;;;17.50;99.90;;;;;;4903092;29;20048;-86
2023/07/12 04:20:12;;;;;;;7.50;5.13;;;17.60;99.90;;;;;;4898817;29;20406;-87
2023/07/12 04:22:38;;;;;;;6.25;5.13;;;17.50;99.90;;;;;;4902514;29;20040;-87
2023/07/12 04:25:07;;;;;;;6.82;4.50;;;17.50;99.90;;;;;;4884230;29;20168;-83
2023/07/12 04:27:37;;;;;;;10.95;5.10;;;17.50;99.90;;;;;;4901949;29;20044;-87
2023/07/12 04:30:08;;;;;;;6.80;4.50;;;17.50;99.90;;;;;;4902758;29;20047;-85
2023/07/12 04:32:34;;;;;;;7.57;4.78;;;17.50;99.90;;;;;;4901652;29;20044;-85
2023/07/12 04:35:00;;;;;;;6.90;4.55;;;17.50;99.90;;;;;;4887527;29;20040;-83
2023/07/12 04:37:27;;;;;;;7.20;4.60;;;17.50;99.90;;;;;;4900725;29;20052;-83
2023/07/12 04:39:52;;;;;;;8.85;4.93;;;17.50;99.90;;;;;;4895026;29;20170;-84
2023/07/12 04:42:19;;;;;;;6.65;4.60;;;17.60;99.90;;;;;;4896903;29;20099;-83
2023/07/12 04:44:44;;;;;;;9.43;4.80;;;17.50;99.90;;;;;;4896860;29;20163;-85
2023/07/12 04:47:10;;;;;;;6.90;4.40;;;17.50;99.90;;;;;;4899067;29;20048;-85
2023/07/12 04:49:36;;;;;;;8.95;4.85;;;17.40;99.90;;;;;;4899301;29;20071;-85
2023/07/12 04:52:04;;;;;;;7.25;4.65;;;17.40;99.90;;;;;;4891146;29;20056;-85
2023/07/12 04:54:29;;;;;;;8.00;4.95;;;17.40;99.90;;;;;;4896384;29;20036;-84
2023/07/12 04:56:55;;;;;;;13.63;4.82;;;17.40;99.90;;;;;;4899958;29;20119;-85
2023/07/12 04:59:21;;;;;;;9.27;4.97;;;17.40;99.90;;;;;;4899473;29;20047;-85
2023/07/12 05:01:46;;;;;;;10.52;4.75;;;17.40;99.90;;;;;;4899982;29;20051;-85
2023/07/12 05:04:13;;;;;;;9.30;5.20;;;17.40;99.90;;;;;;4900001;29;20043;-85
2023/07/12 05:06:39;;;;;;;10.35;4.63;;;17.50;99.90;;;;;;4899343;29;20111;-85
2023/07/12 05:09:05;;;;;;;8.20;4.93;;;17.50;99.90;;;;;;4883018;29;20134;-86
2023/07/12 05:11:31;;;;;;;9.80;5.03;;;17.60;99.90;;;;;;4887158;29;20044;-85
2023/07/12 05:13:57;;;;;;;11.23;5.07;;;17.50;99.90;;;;;;4901089;29;20047;-85
2023/07/12 05:16:22;;;;;;;9.45;5.25;;;17.60;99.90;;;;;;4902932;29;20514;-85
2023/07/12 05:18:48;;;;;;;7.25;5.32;;;17.60;99.90;;;;;;4902942;29;20076;-85
2023/07/12 05:21:14;;;;;;;8.77;5.38;;;17.60;99.90;;;;;;4904277;29;20062;-85
2023/07/12 05:23:40;;;;;;;10.48;5.40;;;17.70;99.90;;;;;;4902919;29;20044;-85
2023/07/12 05:26:06;;;;;;;10.65;6.05;;;17.70;99.90;;;;;;4904281;29;20088;-87
2023/07/12 05:28:32;;;;;;;8.95;6.43;;;17.80;99.90;;;;;;4885524;29;20385;-86
2023/07/12 05:30:58;;;;;;;8.65;6.38;;;17.90;99.90;;;;;;4900708;29;20099;-88
2023/07/12 05:33:24;;;;;;;9.88;6.65;;;18.00;99.90;;;;;;4887537;29;20131;-87
2023/07/12 05:35:49;;;;;;;11.65;7.07;;;17.90;99.90;;;;;;4899749;29;20127;-86
2023/07/12 05:38:16;;;;;;;12.55;7.40;;;17.90;99.90;;;;;;4883990;29;20396;-88
2023/07/12 05:40:41;;;;;;;12.45;7.05;;;17.80;99.90;;;;;;4900293;29;20055;-87
2023/07/12 05:43:07;;;;;;;10.05;7.35;;;17.80;99.90;;;;;;4887351;29;20036;-85
2023/07/12 05:45:33;;;;;;;13.40;7.25;;;17.70;99.90;;;;;;4884845;29;20040;-85
2023/07/12 05:47:59;;;;;;;11.25;7.40;;;17.70;99.90;;;;;;4892860;29;20036;-85
2023/07/12 05:50:26;;;;;;;14.70;8.70;;;17.80;99.90;;;;;;4886795;29;20044;-84
2023/07/12 05:52:51;;;;;;;10.98;7.68;;;17.90;99.90;;;;;;4903388;29;20104;-85
2023/07/12 05:55:18;;;;;;;13.25;8.60;;;17.90;99.90;;;;;;4903756;29;20042;-84
2023/07/12 05:57:45;;;;;;;12.95;8.93;;;18.00;99.90;;;;;;4902569;29;20044;-84
2023/07/12 06:00:11;;;;;;;13.98;8.63;;;18.10;99.90;;;;;;4903708;29;20397;-85
2023/07/12 06:02:40;;;;;;;11.85;8.98;;;18.10;99.90;;;;;;4901920;29;20048;-85
2023/07/12 06:05:06;;;;;;;11.43;8.45;;;18.20;99.90;;;;;;4902468;29;20044;-84
2023/07/12 06:07:33;;;;;;;14.23;8.65;;;18.20;99.90;;;;;;4901784;29;20491;-82
2023/07/12 06:09:59;;;;;;;13.68;8.82;;;18.20;99.90;;;;;;4902123;29;20131;-87
2023/07/12 06:12:25;;;;;;;11.70;8.52;;;18.20;99.90;;;;;;4917506;29;20072;-84
2023/07/12 06:14:51;;;;;;;13.88;9.75;;;18.30;99.90;;;;;;4902106;29;20077;-84
2023/07/12 06:17:17;;;;;;;12.80;9.13;;;18.50;99.90;;;;;;4901845;29;20051;-84
2023/07/12 06:19:44;;;;;;;16.17;9.95;;;18.40;99.90;;;;;;4908122;29;20051;-84
2023/07/12 06:22:10;;;;;;;17.23;9.15;;;18.60;99.90;;;;;;4894869;29;20048;-84
2023/07/12 06:24:36;;;;;;;16.48;10.10;;;18.60;99.90;;;;;;4902011;29;20052;-87
2023/07/12 06:27:02;;;;;;;15.15;9.57;;;18.60;99.90;;;;;;4900896;29;20044;-83
2023/07/12 06:29:29;;;;;;;13.68;8.82;;;18.70;99.90;;;;;;4898291;29;20123;-90
2023/07/12 06:31:54;;;;;;;19.13;9.63;;;18.60;99.90;;;;;;4881638;29;20036;-87
2023/07/12 06:34:21;;;;;;;10.98;9.50;;;18.60;99.90;;;;;;4896235;29;20032;-88
2023/07/12 06:36:46;;;;;;;17.13;10.52;;;18.60;99.90;;;;;;4893922;23;20467;-90
2023/07/12 06:39:12;;;;;;;15.63;10.05;;;18.60;99.90;;;;;;4895057;29;20065;-89
2023/07/12 06:41:38;;;;;;;15.35;9.90;;;18.60;99.90;;;;;;4911643;29;20048;-89
2023/07/12 06:44:03;;;;;;;23.05;10.55;;;18.60;99.90;;;;;;4882763;29;20041;-90
2023/07/12 06:46:29;;;;;;;16.75;9.82;;;18.60;99.90;;;;;;4901324;29;20488;-90
2023/07/12 06:48:55;;;;;;;18.67;10.40;;;18.70;99.90;;;;;;4880763;29;21478;-91
2023/07/12 06:51:21;;;;;;;12.93;9.52;;;18.70;99.90;;;;;;4869975;29;20088;-90
2023/07/12 06:53:47;;;;;;;14.25;9.48;;;18.80;99.90;;;;;;4876837;29;20040;-90
2023/07/12 06:56:13;;;;;;;11.15;9.70;;;18.90;99.90;;;;;;4870261;29;20041;-89
2023/07/12 06:58:38;;;;;;;12.25;9.50;;;19.00;99.90;;;;;;4871299;29;20513;-89
2023/07/12 07:01:08;;;;;;;14.05;9.38;;;19.00;99.90;;;;;;4868978;29;20052;-89
2023/07/12 07:03:34;;;;;;;12.90;10.07;;;19.20;99.90;;;;;;4872880;29;20049;-89
2023/07/12 07:06:00;;;;;;;11.45;9.25;;;19.30;99.90;;;;;;4884773;29;20084;-90
2023/07/12 07:08:27;;;;;;;15.70;9.75;;;19.20;99.90;;;;;;4857667;29;20108;-89
2023/07/12 07:10:53;;;;;;;13.43;8.48;;;19.30;99.90;;;;;;4880190;29;20054;-91
2023/07/12 07:13:24;;;;;;;13.23;8.60;;;19.20;99.90;;;;;;4851675;29;20171;-90
2023/07/12 07:15:50;;;;;;;12.68;8.40;;;19.00;99.90;;;;;;4866963;29;20036;-90
2023/07/12 07:18:16;;;;;;;18.80;8.68;;;18.90;99.90;;;;;;4856783;29;20112;-90
2023/07/12 07:20:43;;;;;;;11.90;8.68;;;19.10;99.90;;;;;;4856673;29;20456;-91
2023/07/12 07:23:10;;;;;;;10.30;8.00;;;19.10;99.90;;;;;;4875980;29;20045;-91
2023/07/12 07:25:36;;;;;;;15.27;8.38;;;19.20;99.90;;;;;;4859531;29;20049;-89
2023/07/12 07:28:02;;;;;;;11.95;8.10;;;19.10;99.90;;;;;;4864106;29;20052;-92
2023/07/12 07:30:28;;;;;;;9.23;6.95;;;19.10;99.90;;;;;;4873711;29;20036;-90
2023/07/12 07:32:54;;;;;;;11.15;7.78;;;18.90;99.90;;;;;;4885730;29;20051;-88
2023/07/12 07:35:20;;;;;;;11.82;7.30;;;19.00;99.90;;;;;;4872623;29;20033;-90
2023/07/12 07:37:48;;;;;;;10.85;7.57;;;19.20;99.90;;;;;;4878105;29;20100;-89
2023/07/12 07:40:14;;;;;;;12.07;8.13;;;19.30;99.90;;;;;;4868398;29;20500;-89
2023/07/12 07:42:40;;;;;;;11.18;7.53;;;19.50;99.90;;;;;;4868888;29;20055;-90
2023/07/12 07:45:09;;;;;;;12.32;7.85;;;19.60;99.90;;;;;;4872404;29;20043;-91
2023/07/12 07:47:35;;;;;;;9.63;7.53;;;19.70;99.90;;;;;;4857555;29;20071;-90
2023/07/12 07:50:02;;;;;;;12.73;8.10;;;19.80;99.90;;;;;;4852214;29;20040;-90
2023/07/12 07:52:27;;;;;;;11.65;7.03;;;20.20;99.90;;;;;;4872173;29;20135;-90
2023/07/12 07:55:06;;;;;;;10.73;7.10;;;20.30;99.90;;;;;;4870001;29;20124;-90
2023/07/12 07:57:32;;;;;;;7.72;6.75;;;20.40;99.90;;;;;;4861743;29;20044;-90
2023/07/12 08:00:03;;;;;;;15.38;7.45;;;20.50;99.90;;;;;;4854579;29;20052;-91
2023/07/12 08:02:29;;;;;;;11.25;6.80;;;20.70;99.90;;;;;;4861760;29;20044;-89
2023/07/12 08:04:54;;;;;;;8.85;6.65;;;20.70;99.90;;;;;;4877021;29;20048;-90
2023/07/12 08:07:21;;;;;;;9.93;6.68;;;20.70;99.90;;;;;;4882068;29;20048;-90
2023/07/12 08:09:46;;;;;;;10.18;6.80;;;20.60;99.90;;;;;;4856880;29;20163;-90
2023/07/12 08:12:12;;;;;;;12.90;6.60;;;20.70;99.90;;;;;;4869373;29;20143;-90
2023/07/12 08:14:38;;;;;;;11.13;6.10;;;21.00;99.90;;;;;;4867205;29;20048;-91
2023/07/12 08:17:07;;;;;;;9.38;6.72;;;21.20;99.90;;;;;;4875446;29;20072;-90
2023/07/12 08:19:33;;;;;;;8.45;6.10;;;21.30;99.90;;;;;;4856912;29;20076;-89
2023/07/12 08:21:59;;;;;;;10.13;6.68;;;21.40;99.90;;;;;;4883408;29;20123;-90
2023/07/12 08:24:25;;;;;;;11.75;6.90;;;21.40;99.90;;;;;;4873020;29;20181;-91
2023/07/12 08:26:50;;;;;;;8.40;6.65;;;21.20;99.90;;;;;;4875054;29;20496;-89
2023/07/12 08:29:16;;;;;;;11.45;6.70;;;21.20;99.90;;;;;;4873755;29;20128;-90
2023/07/12 08:31:42;;;;;;;7.93;6.57;;;21.10;99.90;;;;;;4874143;29;20096;-90
2023/07/12 08:34:07;;;;;;;10.98;6.47;;;21.10;99.90;;;;;;4863192;29;20108;-90
2023/07/12 08:36:33;;;;;;;12.70;6.85;;;21.40;99.90;;;;;;4881231;29;20495;-89
2023/07/12 08:38:59;;;;;;;8.57;5.80;;;21.30;99.90;;;;;;4869292;29;20404;-90
2023/07/12 08:41:29;;;;;;;10.95;6.25;;;21.30;99.90;;;;;;4856586;29;20056;-90
2023/07/12 08:43:58;;;;;;;13.40;5.85;;;21.30;99.90;;;;;;4873541;29;20041;-90
2023/07/12 08:46:26;;;;;;;10.05;5.88;;;21.10;99.90;;;;;;4889614;29;20406;-90
2023/07/12 08:48:55;;;;;;;15.40;6.65;;;20.90;99.90;;;;;;4878290;29;20651;-91
2023/07/12 08:51:30;;;;;;;10.85;5.93;;;20.70;99.90;;;;;;4872877;29;20040;-89
2023/07/12 08:53:56;;;;;;;8.57;5.55;;;20.60;99.90;;;;;;4867815;29;20037;-90
2023/07/12 08:56:22;;;;;;;11.00;6.28;;;21.10;99.90;;;;;;4860954;29;20057;-89
2023/07/12 08:59:14;;;;;;;6.47;5.60;;;21.40;99.90;;;;;;4857105;29;20048;-90
2023/07/12 09:01:47;;;;;;;7.43;6.28;;;21.50;99.90;;;;;;4875980;29;20079;-90
2023/07/12 09:04:30;;;;;;;9.95;6.55;;;21.40;99.90;;;;;;4884922;29;20079;-91
2023/07/12 09:06:59;;;;;;;9.48;5.80;;;21.20;99.90;;;;;;4889655;29;20115;-90
2023/07/12 09:09:32;;;;;;;8.00;6.18;;;21.20;99.90;;;;;;4868796;29;20514;-91
2023/07/12 09:12:00;;;;;;;8.98;6.20;;;21.00;99.90;;;;;;4898370;29;20048;-90
2023/07/12 09:14:26;;;;;;;10.45;6.28;;;20.90;99.90;;;;;;4860684;29;20044;-91
2023/07/12 09:16:57;;;;;;;10.60;6.22;;;20.90;99.90;;;;;;4881191;29;20040;-90
2023/07/12 09:19:35;;;;;;;12.98;6.88;;;20.70;99.90;;;;;;4874440;29;20100;-89
2023/07/12 09:22:12;;;;;;;10.45;6.43;;;20.70;99.90;;;;;;4892896;29;20041;-90
2023/07/12 09:24:42;;;;;;;9.40;6.72;;;20.70;99.90;;;;;;4874845;29;20441;-89
2023/07/12 09:27:17;;;;;;;7.78;6.65;;;20.60;99.90;;;;;;4873671;29;20133;-91
2023/07/12 09:29:43;;;;;;;13.23;7.18;;;20.60;99.90;;;;;;4872048;29;20136;-90
2023/07/12 09:32:17;;;;;;;7.70;5.55;;;20.50;99.90;;;;;;4877423;29;20120;-90
2023/07/12 09:34:45;;;;;;;8.68;5.97;;;20.40;99.90;;;;;;4865407;29;20055;-91
2023/07/12 09:37:18;;;;;;;10.25;6.63;;;20.30;99.90;;;;;;4855481;29;20045;-90
2023/07/12 09:40:04;;;;;;;6.72;5.97;;;20.30;99.90;;;;;;4869797;29;20117;-91
2023/07/12 09:42:31;;;;;;;11.18;6.78;;;20.40;99.90;;;;;;4863286;29;20564;-90
2023/07/12 09:44:58;;;;;;;9.30;6.57;;;20.80;99.90;;;;;;4874826;29;20045;-91
2023/07/12 09:47:58;;;;;;;9.27;6.00;;;21.50;99.90;;;;;;4885314;29;20052;-91
2023/07/12 09:50:24;;;;;;;10.45;6.10;;;22.30;99.90;;;;;;4867846;29;20052;-91
2023/07/12 09:52:49;;;;;;;10.18;6.05;;;22.30;99.90;;;;;;4863815;29;20129;-90
2023/07/12 09:55:22;;;;;;;10.05;6.60;;;22.10;99.90;;;;;;4860992;29;20064;-91
2023/07/12 09:57:56;;;;;;;9.93;6.30;;;21.80;99.90;;;;;;4860489;29;20138;-90
2023/07/12 10:00:50;;;;;;;10.40;6.65;;;21.40;99.90;;;;;;4872032;29;20132;-89
2023/07/12 10:03:22;;;;;;;9.35;6.63;;;21.20;99.90;;;;;;4832391;29;20134;-90
2023/07/12 10:06:42;;;;;;;9.98;7.00;;;21.00;99.90;;;;;;4866538;29;20128;-89
2023/07/12 10:09:26;;;;;;;11.38;6.70;;;20.80;99.90;;;;;;4873244;29;20068;-90
2023/07/12 10:12:07;;;;;;;8.90;6.20;;;20.80;99.90;;;;;;4859405;29;20094;-90
2023/07/12 10:14:37;;;;;;;9.68;6.22;;;21.50;99.90;;;;;;4858575;29;20044;-89
2023/07/12 10:17:03;;;;;;;8.30;6.47;;;21.60;99.90;;;;;;4881591;29;20064;-91
2023/07/12 10:19:37;;;;;;;10.25;6.97;;;21.80;99.90;;;;;;4865938;29;20097;-89
2023/07/12 10:22:16;;;;;;;8.57;6.28;;;22.50;99.90;;;;;;4860159;29;20511;-89
2023/07/12 10:24:48;;;;;;;8.70;5.75;;;22.90;99.90;;;;;;4863341;29;20487;-89
2023/07/12 10:27:24;;;;;;;10.50;6.13;;;22.70;99.90;;;;;;4860745;29;20097;-90
2023/07/12 10:30:09;;;;;;;9.52;5.40;;;22.50;99.90;;;;;;4861792;29;20096;-91
2023/07/12 10:32:46;;;;;;;12.75;5.95;;;22.50;99.90;;;;;;4876172;29;20040;-90
2023/07/12 10:35:40;;;;;;;7.28;5.07;;;22.90;99.90;;;;;;4884776;29;20036;-91
2023/07/12 10:38:13;;;;;;;7.47;4.82;;;23.00;99.90;;;;;;4877430;29;20079;-90
2023/07/12 10:40:47;;;;;;;9.38;4.70;;;22.90;99.90;;;;;;4868570;29;20192;-91
2023/07/12 10:43:18;;;;;;;8.00;4.03;;;22.40;99.90;;;;;;4873684;29;20174;-90
2023/07/12 10:45:46;;;;;;;8.60;3.80;;;22.60;99.90;;;;;;4863524;29;20040;-90
2023/07/12 10:48:19;;;;;;;6.55;3.75;;;23.00;99.90;;;;;;4875360;29;20173;-90
2023/07/12 10:50:48;;;;;;;7.15;4.00;;;23.60;99.90;;;;;;4871229;29;20119;-91
2023/07/12 10:53:23;;;;;;;10.35;4.20;;;24.10;99.90;;;;;;4900683;29;20062;-90
2023/07/12 10:56:17;;;;;;;7.38;4.00;;;24.30;99.90;;;;;;4878196;29;20128;-91
2023/07/12 10:58:58;;;;;;;8.90;4.15;;;24.60;99.90;;;;;;4849384;29;20049;-90
2023/07/12 11:01:41;;;;;;;5.32;4.40;;;24.10;99.90;;;;;;4880813;29;20044;-90
2023/07/12 11:04:13;;;;;;;6.93;4.40;;;23.70;99.90;;;;;;4877250;29;20036;-90
2023/07/12 11:06:56;;;;;;;7.00;4.10;;;23.40;99.90;;;;;;4880845;29;20044;-90
2023/07/12 11:09:23;;;;;;;7.13;3.55;;;23.60;99.90;;;;;;4854418;29;20044;-91
2023/07/12 11:12:05;;;;;;;7.97;3.80;;;23.80;99.90;;;;;;4864898;29;20045;-90
2023/07/12 11:14:37;;;;;;;8.02;3.72;;;24.10;99.90;;;;;;4883323;29;21461;-91
2023/07/12 11:17:05;;;;;;;6.72;4.05;;;24.00;99.90;;;;;;4875831;29;20045;-90
2023/07/12 11:19:40;;;;;;;7.55;3.83;;;24.20;99.90;;;;;;4855764;29;20048;-91
2023/07/12 11:22:45;;;;;;;8.43;3.40;;;24.60;99.90;;;;;;4869764;29;20090;-91
2023/07/12 11:25:29;;;;;;;5.68;3.00;;;24.80;99.90;;;;;;4844586;29;20060;-91
2023/07/12 11:28:02;;;;;;;5.25;3.17;;;25.40;99.90;;;;;;4873977;29;20041;-91
2023/07/12 11:30:28;;;;;;;4.82;2.72;;;25.40;99.90;;;;;;4883822;29;20072;-90
2023/07/12 11:33:15;;;;;;;8.00;4.18;;;25.80;99.90;;;;;;4872048;29;20065;-90
2023/07/12 11:36:08;;;;;;;5.32;3.50;;;25.90;99.90;;;;;;4857695;29;20409;-92
2023/07/12 11:38:36;;;;;;;7.57;3.78;;;26.10;99.90;;;;;;4856020;29;20512;-91
2023/07/12 11:41:05;;;;;;;7.57;3.05;;;25.90;99.90;;;;;;4871129;29;20040;-91
2023/07/12 11:43:37;;;;;;;6.20;3.42;;;26.00;99.90;;;;;;4884185;29;20041;-91
2023/07/12 11:46:26;;;;;;;5.65;3.72;;;26.10;99.90;;;;;;4882449;29;20052;-91
2023/07/12 11:49:01;;;;;;;6.20;3.13;;;25.70;99.90;;;;;;4890017;29;20115;-90
2023/07/12 11:51:36;;;;;;;5.43;3.50;;;25.90;99.90;;;;;;4857064;29;20041;-91
2023/07/12 11:54:20;;;;;;;5.35;3.00;;;25.80;99.90;;;;;;4869614;29;20093;-91
2023/07/12 11:56:49;;;;;;;6.85;4.18;;;25.40;99.90;;;;;;4850208;29;20076;-91
2023/07/12 11:59:18;;;;;;;7.63;3.72;;;25.30;99.90;;;;;;4862081;29;20043;-85
2023/07/12 12:01:45;;;;;;;8.70;3.58;;;25.60;99.90;;;;;;4875758;29;20113;-85
2023/07/12 12:04:23;;;;;;;4.90;2.40;;;26.00;99.90;;;;;;4881693;29;20089;-85
2023/07/12 12:07:02;;;;;;;3.97;1.77;;;26.50;99.90;;;;;;4895989;29;20612;-86
2023/07/12 12:09:35;;;;;;;3.25;1.40;;;26.70;99.90;;;;;;4874648;29;20044;-86
2023/07/12 12:12:02;;;;;;;2.72;1.45;;;27.00;95.20;;;;;;4878033;29;20036;-87
2023/07/12 12:14:35;;;;;;;1.63;1.05;;;27.20;92.00;;;;;;4872935;29;20052;-86
2023/07/12 12:17:05;;;;;;;2.17;1.38;;;27.20;89.90;;;;;;4886801;29;20408;-83
2023/07/12 12:19:31;;;;;;;1.83;1.38;;;27.30;87.10;;;;;;4883169;29;20045;-84
2023/07/12 12:22:21;;;;;;;2.53;1.40;;;27.60;85.60;;;;;;4878266;29;20052;-86
2023/07/12 12:36:44;;;;;;;2.17;1.23;;;26.30;80.70;;;;;;4834849;29;20029;-89
2023/07/12 12:40:16;;;;;;;3.67;1.63;;;26.40;83.00;;;;;;4807419;29;20422;-89
2023/07/12 12:50:54;;;;;;;1.88;1.27;;;26.70;81.30;;;;;;4859242;29;20087;-91
2023/07/12 12:53:33;;;;;;;2.72;1.50;;;26.40;80.10;;;;;;4846489;29;20113;-90
2023/07/12 12:56:43;;;;;;;3.75;1.50;;;26.00;77.70;;;;;;4864066;29;20058;-89
2023/07/12 13:00:12;;;;;;;2.33;1.33;;;26.10;80.10;;;;;;4847079;29;20518;-90
2023/07/12 13:02:49;;;;;;;2.67;1.55;;;26.70;81.60;;;;;;4883966;29;20108;-88
2023/07/12 13:05:16;;;;;;;3.90;1.58;;;27.00;79.10;;;;;;4864177;29;20054;-87
2023/07/12 13:07:44;;;;;;;2.97;1.50;;;26.90;76.30;;;;;;4856370;29;20041;-87
2023/07/12 13:10:17;;;;;;;2.03;1.23;;;26.60;77.50;;;;;;4885078;29;20048;-89
2023/07/12 13:12:43;;;;;;;;;;;27.00;76.50;;;;;;4874622;29;20041;-88
2023/07/12 13:15:20;;;;;;;2.90;1.20;;;26.60;73.70;;;;;;4873222;29;19919;-87
2023/07/12 13:17:48;;;;;;;2.13;1.10;;;26.40;73.20;;;;;;4869872;29;20430;-87
2023/07/12 13:20:20;;;;;;;1.80;0.90;;;26.60;74.60;;;;;;4868608;29;20048;-87